Ryan T — WDC9570 — position and weather

sailwx.info

Track history (hours):
 
Tides and Currents Weather Stations Pressure Air Temp Water Temp Dewpoint Dewpoint Depression Visibility Wind Speed Wind Dir Waves Ship Positions

Ryan T

Owner: SO CAL SHIP SERVICES, INC, TERMINAL ISLAND, CA. More information available from US FCC via Universal Licensing System and Coast Guard Vessel Documentation Center.

Last reported at 2017-Sep-19 19:18 UTC. Time now 2017-Sep-25 14:59 UTC.
Position N 33°44' W 118°16'.

MMSI: 367104050.

Date/timePositionNaut miles runAvg speedWind from/ knotsBaromVisibWave heightAir tempDewpointWater temp
2017-Sep-19 19:18N 33°44' W 118°16'0 0.0
2017-Sep-19 19:00N 33°44' W 118°16'0 0.2
2017-Sep-19 18:27N 33°44' W 118°16'0 0.3
2017-Sep-19 17:57N 33°44' W 118°16'2 4.6
2017-Sep-19 17:27N 33°42' W 118°15'1915.1
2017-Sep-19 16:10N 33°49' W 118°37'515.2
2017-Sep-19 15:52N 33°52' W 118°42'515.2
2017-Sep-19 15:30N 33°55' W 118°47'815.3
2017-Sep-19 15:00N 33°59' W 118°55'815.3
2017-Sep-19 14:30N 34°03' W 119°03'815.6
2017-Sep-19 14:00N 34°07' W 119°11'2 4.0
2017-Sep-19 13:28N 34°09' W 119°12'0 0.0
2017-Sep-19 12:58N 34°09' W 119°12'0 0.0
2017-Sep-19 12:28N 34°09' W 119°12'0 0.0
2017-Sep-19 12:00N 34°09' W 119°12'0 0.0
2017-Sep-19 11:31N 34°09' W 119°12'0 0.0
2017-Sep-19 11:01N 34°09' W 119°12'0 0.0
2017-Sep-19 10:30N 34°09' W 119°12'0 0.0
2017-Sep-19 09:58N 34°09' W 119°12'0 0.0
2017-Sep-19 09:30N 34°09' W 119°12'0 0.0
2017-Sep-19 08:58N 34°09' W 119°12'0 0.0
2017-Sep-19 08:29N 34°09' W 119°12'0 0.0
2017-Sep-19 08:01N 34°09' W 119°12'0 0.0
2017-Sep-19 07:29N 34°09' W 119°12'0 0.0
2017-Sep-19 07:00N 34°09' W 119°12'0 0.0
2017-Sep-19 06:30N 34°09' W 119°12'0 0.0
2017-Sep-19 05:56N 34°09' W 119°12'0 0.0
2017-Sep-19 05:30N 34°09' W 119°12'0 0.0
2017-Sep-19 05:00N 34°09' W 119°12'0 0.0
2017-Sep-19 04:29N 34°09' W 119°12'0 0.0
2017-Sep-19 03:58N 34°09' W 119°12'0 0.0
2017-Sep-19 03:30N 34°09' W 119°12'0 0.0
2017-Sep-19 02:59N 34°09' W 119°12'0 0.0
2017-Sep-19 02:29N 34°09' W 119°12'0 0.0
2017-Sep-19 01:57N 34°09' W 119°12'0 0.0
2017-Sep-19 01:29N 34°09' W 119°12'0 0.0
2017-Sep-19 00:59N 34°09' W 119°12'0 0.0
2017-Sep-19 00:31N 34°09' W 119°12'4 7.8
2017-Sep-18 23:59N 34°07' W 119°17'0 0.0
2017-Sep-18 23:30N 34°07' W 119°17'0 0.0
2017-Sep-18 22:59N 34°07' W 119°17'4 8.7
2017-Sep-18 22:30N 34°09' W 119°21'4 7.6
2017-Sep-18 21:59N 34°11' W 119°25'0 0.0
2017-Sep-18 21:30N 34°11' W 119°25'0 0.1
2017-Sep-18 21:00N 34°11' W 119°25'0 0.0
2017-Sep-18 20:28N 34°11' W 119°25'4 8.2
2017-Sep-18 20:00N 34°09' W 119°21'2 4.5
2017-Sep-18 19:30N 34°08' W 119°19'612.2
2017-Sep-18 19:00N 34°11' W 119°25'0 0.1
2017-Sep-18 18:30N 34°11' W 119°25'0 0.1
2017-Sep-18 18:00N 34°11' W 119°25'0 0.0
2017-Sep-18 17:30N 34°11' W 119°25'0 0.1
2017-Sep-18 15:09N 34°11' W 119°25'0 0.8
2017-Sep-18 15:00N 34°11' W 119°25'4 8.0
2017-Sep-18 14:30N 34°10' W 119°20'713.7
2017-Sep-18 14:00N 34°09' W 119°12'0 0.0
2017-Sep-18 13:29N 34°09' W 119°12'0 0.0
2017-Sep-18 13:00N 34°09' W 119°12'0 0.0
2017-Sep-18 12:28N 34°09' W 119°12'0 0.0
2017-Sep-18 11:57N 34°09' W 119°12'0 0.0
2017-Sep-18 11:24N 34°09' W 119°12'0 0.0
2017-Sep-18 11:00N 34°09' W 119°12'0 0.0
2017-Sep-18 10:30N 34°09' W 119°12'0 0.0
2017-Sep-18 09:59N 34°09' W 119°12'0 0.0
2017-Sep-18 09:29N 34°09' W 119°12'0 0.0
2017-Sep-18 08:59N 34°09' W 119°12'0 0.0
2017-Sep-18 08:30N 34°09' W 119°12'0 0.0
2017-Sep-18 08:00N 34°09' W 119°12'0 0.0
2017-Sep-18 07:26N 34°09' W 119°12'0 0.0
2017-Sep-18 06:59N 34°09' W 119°12'0 0.0
2017-Sep-18 06:29N 34°09' W 119°12'0 0.0
2017-Sep-18 05:58N 34°09' W 119°12'0 0.0
2017-Sep-18 05:26N 34°09' W 119°12'0 0.0
2017-Sep-18 05:00N 34°09' W 119°12'0 0.0
2017-Sep-18 04:28N 34°09' W 119°12'0 0.0
2017-Sep-18 03:58N 34°09' W 119°12'0 0.0
2017-Sep-18 03:30N 34°09' W 119°12'0 0.0
2017-Sep-18 02:59N 34°09' W 119°12'0 0.0
2017-Sep-18 02:30N 34°09' W 119°12'0 0.0
2017-Sep-18 02:00N 34°09' W 119°12'0 0.0
2017-Sep-18 01:30N 34°09' W 119°12'0 0.0
2017-Sep-18 00:59N 34°09' W 119°12'0 0.0
2017-Sep-18 00:29N 34°09' W 119°12'0 0.0
2017-Sep-18 00:00N 34°09' W 119°12'0 0.1
2017-Sep-17 23:29N 34°09' W 119°12'0 0.0
2017-Sep-17 22:58N 34°09' W 119°12'0 0.0
2017-Sep-17 22:30N 34°09' W 119°12'0 0.0
2017-Sep-17 21:59N 34°09' W 119°12'4 7.3
2017-Sep-17 21:25N 34°07' W 119°17'0 0.0
2017-Sep-17 20:59N 34°07' W 119°17'0 0.0
2017-Sep-17 20:27N 34°07' W 119°17'0 0.1
2017-Sep-17 20:00N 34°07' W 119°17'1 1.5
2017-Sep-17 19:30N 34°07' W 119°17'714.8
2017-Sep-17 19:00N 34°11' W 119°25'0 0.3
2017-Sep-17 18:27N 34°11' W 119°25'0 0.3
2017-Sep-17 18:00N 34°11' W 119°25'0 0.0
2017-Sep-17 17:29N 34°11' W 119°25'0 0.2
2017-Sep-17 17:00N 34°11' W 119°25'0 0.0
2017-Sep-17 16:30N 34°11' W 119°25'713.9
2017-Sep-17 15:59N 34°17' W 119°30'612.4
2017-Sep-17 15:29N 34°23' W 119°30'3 6.1
2017-Sep-17 14:59N 34°20' W 119°31'917.7
2017-Sep-17 14:27N 34°14' W 119°22'817.8
2017-Sep-17 14:00N 34°09' W 119°15'2 4.5
2017-Sep-17 13:30N 34°09' W 119°12'0 0.0
2017-Sep-17 13:00N 34°09' W 119°12'0 0.0
2017-Sep-17 12:28N 34°09' W 119°12'0 0.0
2017-Sep-17 12:00N 34°09' W 119°12'0 0.0
2017-Sep-17 11:30N 34°09' W 119°12'0 0.0
2017-Sep-17 11:00N 34°09' W 119°12'0 0.0
2017-Sep-17 10:29N 34°09' W 119°12'0 0.0
2017-Sep-17 10:00N 34°09' W 119°12'0 0.0
2017-Sep-17 09:30N 34°09' W 119°12'0 0.0
2017-Sep-17 09:00N 34°09' W 119°12'0 0.0
2017-Sep-17 08:30N 34°09' W 119°12'0 0.0
2017-Sep-17 08:00N 34°09' W 119°12'0 0.0
2017-Sep-17 07:30N 34°09' W 119°12'0 0.0
2017-Sep-17 07:01N 34°09' W 119°12'0 0.0
2017-Sep-17 06:28N 34°09' W 119°12'0 0.0
2017-Sep-17 05:59N 34°09' W 119°12'0 0.0
2017-Sep-17 05:30N 34°09' W 119°12'0 0.0
2017-Sep-17 04:59N 34°09' W 119°12'0 0.0
2017-Sep-17 04:30N 34°09' W 119°12'0 0.0
2017-Sep-17 03:57N 34°09' W 119°12'0 0.0
2017-Sep-17 03:25N 34°09' W 119°12'0 0.0
2017-Sep-17 03:00N 34°09' W 119°12'0 0.0
2017-Sep-17 02:30N 34°09' W 119°12'0 0.0
2017-Sep-17 01:57N 34°09' W 119°12'0 0.0
2017-Sep-17 01:30N 34°09' W 119°12'0 0.0
2017-Sep-17 00:59N 34°09' W 119°12'0 0.3
2017-Sep-17 00:30N 34°09' W 119°12'815.8
2017-Sep-17 00:00N 34°10' W 119°22'3 5.9
2017-Sep-16 23:30N 34°11' W 119°25'0 0.3
2017-Sep-16 23:00N 34°11' W 119°25'0 0.4
2017-Sep-16 22:30N 34°11' W 119°25'1 2.1
2017-Sep-16 22:00N 34°12' W 119°26'918.1
2017-Sep-16 21:30N 34°20' W 119°31'3 7.0
2017-Sep-16 21:00N 34°23' W 119°30'0 0.0
2017-Sep-16 20:30N 34°23' W 119°30'3 5.3
2017-Sep-16 20:00N 34°21' W 119°32'815.9
2017-Sep-16 19:30N 34°14' W 119°27'3 5.9
2017-Sep-16 18:58N 34°11' W 119°25'0 0.4
2017-Sep-16 18:31N 34°11' W 119°25'0 0.0
2017-Sep-16 18:00N 34°11' W 119°25'0 0.0
2017-Sep-16 17:30N 34°11' W 119°25'0 0.0
2017-Sep-16 17:00N 34°11' W 119°25'0 0.0
2017-Sep-16 16:30N 34°11' W 119°25'0 0.3
2017-Sep-16 16:00N 34°11' W 119°25'611.3
2017-Sep-16 15:27N 34°10' W 119°18'510.7
2017-Sep-16 15:00N 34°09' W 119°12'0 0.1
2017-Sep-16 14:30N 34°09' W 119°12'0 0.0
2017-Sep-16 14:00N 34°09' W 119°12'0 0.1
2017-Sep-16 13:24N 34°09' W 119°12'0 0.0
2017-Sep-16 12:58N 34°09' W 119°12'0 0.0
2017-Sep-16 12:29N 34°09' W 119°12'0 0.0
2017-Sep-16 11:59N 34°09' W 119°12'0 0.0
2017-Sep-16 11:27N 34°09' W 119°12'0 0.0
2017-Sep-16 10:57N 34°09' W 119°12'0 0.0
2017-Sep-16 10:25N 34°09' W 119°12'0 0.0
2017-Sep-16 09:59N 34°09' W 119°12'0 0.0
2017-Sep-16 09:28N 34°09' W 119°12'0 0.0
2017-Sep-16 09:00N 34°09' W 119°12'0 0.0
2017-Sep-16 08:27N 34°09' W 119°12'0 0.0
2017-Sep-16 07:59N 34°09' W 119°12'0 0.0
2017-Sep-16 07:30N 34°09' W 119°12'0 0.0
2017-Sep-16 07:00N 34°09' W 119°12'0 0.0
2017-Sep-16 06:26N 34°09' W 119°12'0 0.0
2017-Sep-16 05:59N 34°09' W 119°12'0 0.0
2017-Sep-16 05:29N 34°09' W 119°12'0 0.0
2017-Sep-16 04:59N 34°09' W 119°12'0 0.0
2017-Sep-16 04:30N 34°09' W 119°12'0 0.0
2017-Sep-16 03:52N 34°09' W 119°12'0 0.0
2017-Sep-16 03:29N 34°09' W 119°12'0 0.0
2017-Sep-16 03:00N 34°09' W 119°12'0 0.0
2017-Sep-16 02:29N 34°09' W 119°12'0 0.0
2017-Sep-16 01:46N 34°09' W 119°12'0 0.0
2017-Sep-16 01:25N 34°09' W 119°12'0 0.0
2017-Sep-16 00:51N 34°09' W 119°12'0 0.0
2017-Sep-16 00:29N 34°09' W 119°12'0 0.0
2017-Sep-15 23:53N 34°09' W 119°12'0 0.0
2017-Sep-15 23:29N 34°09' W 119°12'0 0.0
2017-Sep-15 22:53N 34°09' W 119°12'0 0.1
2017-Sep-15 22:30N 34°09' W 119°12'816.0
2017-Sep-15 22:00N 34°10' W 119°22'3 5.7
2017-Sep-15 21:31N 34°11' W 119°25'2 3.5
2017-Sep-15 20:58N 34°13' W 119°26'816.0
2017-Sep-15 20:30N 34°19' W 119°30'4 7.3
2017-Sep-15 19:59N 34°23' W 119°30'0 0.0
2017-Sep-15 19:30N 34°23' W 119°30'814.6
2017-Sep-15 18:59N 34°16' W 119°28'5 9.2
2017-Sep-15 18:24N 34°11' W 119°25'0 0.0
2017-Sep-15 17:58N 34°11' W 119°25'0 0.3
2017-Sep-15 17:30N 34°11' W 119°25'0 0.1
2017-Sep-15 16:58N 34°11' W 119°25'0 0.1
2017-Sep-15 16:30N 34°11' W 119°25'0 0.0
2017-Sep-15 15:59N 34°11' W 119°25'0 0.0
2017-Sep-15 15:29N 34°11' W 119°25'0 0.1
2017-Sep-15 14:53N 34°11' W 119°25'3 6.0
2017-Sep-15 14:25N 34°10' W 119°22'615.5
2017-Sep-15 14:00N 34°09' W 119°15'2 3.7
2017-Sep-15 13:28N 34°09' W 119°12'0 0.0
2017-Sep-15 13:00N 34°09' W 119°12'0 0.0
2017-Sep-15 12:28N 34°09' W 119°12'0 0.0
2017-Sep-15 12:01N 34°09' W 119°12'0 0.0
2017-Sep-15 11:31N 34°09' W 119°12'0 0.0
2017-Sep-15 11:00N 34°09' W 119°12'0 0.0
2017-Sep-15 10:26N 34°09' W 119°12'0 0.0
2017-Sep-15 10:00N 34°09' W 119°12'0 0.0
2017-Sep-15 09:24N 34°09' W 119°12'0 0.0
2017-Sep-15 09:00N 34°09' W 119°12'0 0.0
2017-Sep-15 08:30N 34°09' W 119°12'0 0.0
2017-Sep-15 08:00N 34°09' W 119°12'0 0.0
2017-Sep-15 07:27N 34°09' W 119°12'0 0.0
2017-Sep-15 07:00N 34°09' W 119°12'0 0.0
2017-Sep-15 06:27N 34°09' W 119°12'0 0.0
2017-Sep-15 06:00N 34°09' W 119°12'0 0.0
2017-Sep-15 05:28N 34°09' W 119°12'0 0.0
2017-Sep-15 05:00N 34°09' W 119°12'0 0.0
2017-Sep-15 04:28N 34°09' W 119°12'0 0.0
2017-Sep-15 04:00N 34°09' W 119°12'0 0.0
2017-Sep-15 03:30N 34°09' W 119°12'0 0.0
2017-Sep-15 02:47N 34°09' W 119°12'0 0.0
2017-Sep-15 02:29N 34°09' W 119°12'0 0.0
2017-Sep-15 02:00N 34°09' W 119°12'0 0.0
2017-Sep-15 01:30N 34°09' W 119°12'0 0.0
2017-Sep-15 01:00N 34°09' W 119°12'0 0.0
2017-Sep-15 00:30N 34°09' W 119°12'2 4.2
2017-Sep-14 23:58N 34°09' W 119°15'715.5
2017-Sep-14 23:30N 34°10' W 119°23'2 3.2
2017-Sep-14 23:01N 34°11' W 119°25'0 0.0
2017-Sep-14 22:28N 34°11' W 119°25'0 0.0
2017-Sep-14 21:55N 34°11' W 119°25'0 0.0
2017-Sep-14 21:30N 34°11' W 119°25'0 0.0
2017-Sep-14 20:59N 34°11' W 119°25'0 0.0
2017-Sep-14 20:28N 34°11' W 119°25'0 0.0
2017-Sep-14 20:00N 34°11' W 119°25'1 1.7
2017-Sep-14 19:30N 34°12' W 119°26'816.4
2017-Sep-14 19:00N 34°19' W 119°30'4 8.6
2017-Sep-14 18:30N 34°23' W 119°30'0 0.0
2017-Sep-14 17:57N 34°23' W 119°30'0 0.0
2017-Sep-14 17:29N 34°23' W 119°30'613.1
2017-Sep-14 17:00N 34°17' W 119°29'713.9
2017-Sep-14 16:30N 34°11' W 119°25'0 0.1
2017-Sep-14 16:00N 34°11' W 119°25'0 0.0
2017-Sep-14 15:30N 34°11' W 119°25'0 0.1
2017-Sep-14 14:58N 34°11' W 119°25'0 0.5
2017-Sep-14 14:30N 34°11' W 119°25'814.8
2017-Sep-14 13:59N 34°09' W 119°16'3 6.2
2017-Sep-14 13:29N 34°09' W 119°12'0 0.0
2017-Sep-14 13:00N 34°09' W 119°12'0 0.0
2017-Sep-14 12:31N 34°09' W 119°12'0 0.0
2017-Sep-14 11:59N 34°09' W 119°12'0 0.0
2017-Sep-14 11:25N 34°09' W 119°12'0 0.0
2017-Sep-14 10:50N 34°09' W 119°12'0 0.0
2017-Sep-14 10:29N 34°09' W 119°12'0 0.0
2017-Sep-14 09:59N 34°09' W 119°12'0 0.0
2017-Sep-14 09:30N 34°09' W 119°12'0 0.0
2017-Sep-14 08:57N 34°09' W 119°12'0 0.0
2017-Sep-14 08:30N 34°09' W 119°12'0 0.0
2017-Sep-14 07:58N 34°09' W 119°12'0 0.0
2017-Sep-14 07:28N 34°09' W 119°12'0 0.0
2017-Sep-14 07:00N 34°09' W 119°12'0 0.0
2017-Sep-14 06:28N 34°09' W 119°12'0 0.0
2017-Sep-14 06:00N 34°09' W 119°12'0 0.0
2017-Sep-14 05:29N 34°09' W 119°12'0 0.0
2017-Sep-14 04:48N 34°09' W 119°12'0 0.0
2017-Sep-14 04:25N 34°09' W 119°12'0 0.0
2017-Sep-14 03:57N 34°09' W 119°12'0 0.0
2017-Sep-14 03:25N 34°09' W 119°12'0 0.0
2017-Sep-14 03:00N 34°09' W 119°12'0 0.0
2017-Sep-14 02:28N 34°09' W 119°12'0 0.0
2017-Sep-14 01:59N 34°09' W 119°12'0 0.0
2017-Sep-14 01:30N 34°09' W 119°12'0 0.0
2017-Sep-14 00:59N 34°09' W 119°12'0 0.0
2017-Sep-14 00:30N 34°09' W 119°12'0 0.0
2017-Sep-14 00:00N 34°09' W 119°12'4 8.4
2017-Sep-13 23:30N 34°09' W 119°17'610.5
2017-Sep-13 22:56N 34°11' W 119°24'817.8
2017-Sep-13 22:30N 34°09' W 119°15'2 4.5
2017-Sep-13 21:57N 34°09' W 119°12'1 1.4
2017-Sep-13 21:31N 34°09' W 119°13'510.6
2017-Sep-13 21:00N 34°08' W 119°19'611.2
2017-Sep-13 20:30N 34°11' W 119°25'0 0.0
2017-Sep-13 20:00N 34°11' W 119°25'0 0.0
2017-Sep-13 19:30N 34°11' W 119°25'2 2.9
2017-Sep-13 18:54N 34°13' W 119°26'513.4
2017-Sep-13 18:30N 34°17' W 119°29'611.2
2017-Sep-13 18:00N 34°23' W 119°31'1 1.2
2017-Sep-13 17:28N 34°23' W 119°30'0 0.0
2017-Sep-13 16:59N 34°23' W 119°30'0 0.0
2017-Sep-13 16:28N 34°23' W 119°30'612.1
2017-Sep-13 15:59N 34°17' W 119°29'714.4
2017-Sep-13 15:29N 34°11' W 119°25'0 0.0
2017-Sep-13 14:58N 34°11' W 119°25'2 5.0
2017-Sep-13 14:30N 34°10' W 119°22'715.4
2017-Sep-13 14:00N 34°09' W 119°14'1 2.3
2017-Sep-13 13:28N 34°09' W 119°12'0 0.0
2017-Sep-13 13:00N 34°09' W 119°12'0 0.0
2017-Sep-13 12:27N 34°09' W 119°12'0 0.0
2017-Sep-13 11:59N 34°09' W 119°12'0 0.0
2017-Sep-13 11:29N 34°09' W 119°12'0 0.0
2017-Sep-13 10:58N 34°09' W 119°12'0 0.0
2017-Sep-13 10:30N 34°09' W 119°12'0 0.0
2017-Sep-13 09:59N 34°09' W 119°12'0 0.0
2017-Sep-13 09:30N 34°09' W 119°12'0 0.0
2017-Sep-13 09:00N 34°09' W 119°12'0 0.0
2017-Sep-13 08:30N 34°09' W 119°12'0 0.0
2017-Sep-13 08:00N 34°09' W 119°12'0 0.0
2017-Sep-13 07:30N 34°09' W 119°12'0 0.0
2017-Sep-13 07:00N 34°09' W 119°12'0 0.0
2017-Sep-13 06:29N 34°09' W 119°12'0 0.0
2017-Sep-13 06:00N 34°09' W 119°12'0 0.0
2017-Sep-13 05:29N 34°09' W 119°12'0 0.0
2017-Sep-13 04:55N 34°09' W 119°12'0 0.0
2017-Sep-13 04:30N 34°09' W 119°12'0 0.0
2017-Sep-13 04:00N 34°09' W 119°12'0 0.0
2017-Sep-13 03:29N 34°09' W 119°12'0 0.0
2017-Sep-13 02:58N 34°09' W 119°12'0 0.0
2017-Sep-13 02:29N 34°09' W 119°12'0 0.0
2017-Sep-13 01:59N 34°09' W 119°12'0 0.0
2017-Sep-13 01:30N 34°09' W 119°12'0 0.0
2017-Sep-13 00:59N 34°09' W 119°12'0 0.0
2017-Sep-13 00:27N 34°09' W 119°12'0 0.0
2017-Sep-12 23:58N 34°09' W 119°12'0 0.0
2017-Sep-12 23:27N 34°09' W 119°12'0 0.0
2017-Sep-12 23:00N 34°09' W 119°12'5 4.8
2017-Sep-12 21:56N 34°04' W 119°15'3 6.6
2017-Sep-12 21:28N 34°07' W 119°17'715.7
2017-Sep-12 21:00N 34°11' W 119°24'1 1.2
2017-Sep-12 20:31N 34°11' W 119°25'914.9
2017-Sep-12 19:55N 34°19' W 119°30'4 8.6
2017-Sep-12 19:26N 34°23' W 119°31'714.4
2017-Sep-12 18:59N 34°16' W 119°29'1 1.3
2017-Sep-12 18:27N 34°17' W 119°29'613.0
2017-Sep-12 18:00N 34°23' W 119°31'0 0.4
2017-Sep-12 17:29N 34°23' W 119°31'713.6
2017-Sep-12 17:00N 34°16' W 119°29'613.0
2017-Sep-12 16:31N 34°11' W 119°25'0 0.1
2017-Sep-12 16:00N 34°11' W 119°25'3 5.9
2017-Sep-12 15:25N 34°09' W 119°21'511.0
2017-Sep-12 15:00N 34°07' W 119°17'0 0.1
2017-Sep-12 14:30N 34°07' W 119°17'4 8.3
2017-Sep-12 14:00N 34°09' W 119°12'0 0.0
2017-Sep-12 13:28N 34°09' W 119°12'0 0.0
2017-Sep-12 13:00N 34°09' W 119°12'0 0.0
2017-Sep-12 12:23N 34°09' W 119°12'0 0.0
2017-Sep-12 11:59N 34°09' W 119°12'0 0.0
2017-Sep-12 11:30N 34°09' W 119°12'0 0.0
2017-Sep-12 10:57N 34°09' W 119°12'0 0.0
2017-Sep-12 10:30N 34°09' W 119°12'0 0.0
2017-Sep-12 10:00N 34°09' W 119°12'0 0.0
2017-Sep-12 09:30N 34°09' W 119°12'0 0.0
2017-Sep-12 08:59N 34°09' W 119°12'0 0.0
2017-Sep-12 08:30N 34°09' W 119°12'0 0.0
2017-Sep-12 08:00N 34°09' W 119°12'0 0.0
2017-Sep-12 07:29N 34°09' W 119°12'0 0.0
2017-Sep-12 06:56N 34°09' W 119°12'0 0.0
2017-Sep-12 06:29N 34°09' W 119°12'0 0.0
2017-Sep-12 06:00N 34°09' W 119°12'0 0.0
2017-Sep-12 05:29N 34°09' W 119°12'0 0.0
2017-Sep-12 05:00N 34°09' W 119°12'0 0.0
2017-Sep-12 04:30N 34°09' W 119°12'0 0.0
2017-Sep-12 03:59N 34°09' W 119°12'0 0.0
2017-Sep-12 03:26N 34°09' W 119°12'0 0.0
2017-Sep-12 03:00N 34°09' W 119°12'0 0.0
2017-Sep-12 02:30N 34°09' W 119°12'0 0.0
2017-Sep-12 02:01N 34°09' W 119°12'0 0.0
2017-Sep-12 01:29N 34°09' W 119°12'0 0.0
2017-Sep-12 00:51N 34°09' W 119°12'0 0.0
2017-Sep-12 00:30N 34°09' W 119°12'4 7.6
2017-Sep-12 00:00N 34°09' W 119°17'714.8
2017-Sep-11 23:30N 34°11' W 119°25'0 0.0
2017-Sep-11 23:00N 34°11' W 119°25'0 0.1
2017-Sep-11 22:30N 34°11' W 119°25'0 0.0
2017-Sep-11 21:59N 34°11' W 119°25'0 0.0
2017-Sep-11 21:29N 34°11' W 119°25'0 0.4
2017-Sep-11 21:00N 34°11' W 119°25'4 7.7
2017-Sep-11 20:30N 34°14' W 119°27'714.7
2017-Sep-11 20:00N 34°21' W 119°32'2 4.8
2017-Sep-11 19:29N 34°23' W 119°30'0 0.8
2017-Sep-11 18:58N 34°23' W 119°30'0 0.0
2017-Sep-11 18:26N 34°23' W 119°30'0 0.0
2017-Sep-11 17:58N 34°23' W 119°30'0 0.1
2017-Sep-11 17:26N 34°23' W 119°30'0 0.0
2017-Sep-11 16:54N 34°23' W 119°30'1 1.7
2017-Sep-11 16:30N 34°23' W 119°30'0 0.8
2017-Sep-11 16:00N 34°23' W 119°31'713.6
2017-Sep-11 15:30N 34°16' W 119°28'611.7
2017-Sep-11 15:00N 34°11' W 119°25'0 0.1
2017-Sep-11 14:30N 34°11' W 119°25'712.8
2017-Sep-11 13:57N 34°09' W 119°17'4 7.8
2017-Sep-11 13:28N 34°09' W 119°12'0 0.0
2017-Sep-11 13:00N 34°09' W 119°12'0 0.0
2017-Sep-11 12:24N 34°09' W 119°12'0 0.0
2017-Sep-11 11:59N 34°09' W 119°12'0 0.0
2017-Sep-11 11:30N 34°09' W 119°12'0 0.0
2017-Sep-11 10:58N 34°09' W 119°12'0 0.0
2017-Sep-11 10:29N 34°09' W 119°12'0 0.0
2017-Sep-11 09:59N 34°09' W 119°12'0 0.0
2017-Sep-11 09:29N 34°09' W 119°12'0 0.0
2017-Sep-11 09:00N 34°09' W 119°12'0 0.0
2017-Sep-11 08:28N 34°09' W 119°12'0 0.0
2017-Sep-11 08:00N 34°09' W 119°12'0 0.0
2017-Sep-11 07:27N 34°09' W 119°12'0 0.0
2017-Sep-11 07:00N 34°09' W 119°12'0 0.0
2017-Sep-11 06:18N 34°09' W 119°12'0 0.0
2017-Sep-11 06:00N 34°09' W 119°12'0 0.0
2017-Sep-11 05:30N 34°09' W 119°12'0 0.0
2017-Sep-11 05:00N 34°09' W 119°12'0 0.0
2017-Sep-11 04:25N 34°09' W 119°12'0 0.0
2017-Sep-11 04:00N 34°09' W 119°12'0 0.0
2017-Sep-11 03:30N 34°09' W 119°12'0 0.0
2017-Sep-11 03:00N 34°09' W 119°12'0 0.0
2017-Sep-11 02:30N 34°09' W 119°12'0 0.0
2017-Sep-11 01:59N 34°09' W 119°12'0 0.0
2017-Sep-11 01:30N 34°09' W 119°12'0 0.0
2017-Sep-11 01:00N 34°09' W 119°12'0 0.0
2017-Sep-11 00:30N 34°09' W 119°12'0 0.0
2017-Sep-10 23:59N 34°09' W 119°12'4 8.9
2017-Sep-10 23:30N 34°09' W 119°17'713.4
2017-Sep-10 23:00N 34°11' W 119°25'0 0.3
2017-Sep-10 22:30N 34°11' W 119°25'0 0.0
2017-Sep-10 22:00N 34°11' W 119°25'0 0.0
2017-Sep-10 21:30N 34°11' W 119°25'0 0.0
2017-Sep-10 20:58N 34°11' W 119°25'0 0.0
2017-Sep-10 20:30N 34°11' W 119°25'0 0.0
2017-Sep-10 20:00N 34°11' W 119°25'0 0.0
2017-Sep-10 19:30N 34°11' W 119°25'0 0.0
2017-Sep-10 19:00N 34°11' W 119°25'0 0.0
2017-Sep-10 18:30N 34°11' W 119°25'0 0.0
2017-Sep-10 18:00N 34°11' W 119°25'0 0.0
2017-Sep-10 17:30N 34°11' W 119°25'0 0.0
2017-Sep-10 17:01N 34°11' W 119°25'0 0.0
2017-Sep-10 16:30N 34°11' W 119°25'0 0.0
2017-Sep-10 16:00N 34°11' W 119°25'0 0.0
2017-Sep-10 15:29N 34°11' W 119°25'0 0.0
2017-Sep-10 15:00N 34°11' W 119°25'9 9.0
2017-Sep-10 14:00N 34°09' W 119°15'2 4.1
2017-Sep-10 13:30N 34°09' W 119°12'0 0.0
2017-Sep-10 13:00N 34°09' W 119°12'0 0.0
2017-Sep-10 12:30N 34°09' W 119°12'0 0.0
2017-Sep-10 12:00N 34°09' W 119°12'0 0.0
2017-Sep-10 11:29N 34°09' W 119°12'0 0.0
2017-Sep-10 11:00N 34°09' W 119°12'0 0.0
2017-Sep-10 10:30N 34°09' W 119°12'0 0.0
2017-Sep-10 09:58N 34°09' W 119°12'0 0.0
2017-Sep-10 09:30N 34°09' W 119°12'0 0.0
2017-Sep-10 09:00N 34°09' W 119°12'0 0.0
2017-Sep-10 08:30N 34°09' W 119°12'0 0.0
2017-Sep-10 08:00N 34°09' W 119°12'0 0.0
2017-Sep-10 07:30N 34°09' W 119°12'0 0.0
2017-Sep-10 07:00N 34°09' W 119°12'0 0.0
2017-Sep-10 06:30N 34°09' W 119°12'0 0.0
2017-Sep-10 06:00N 34°09' W 119°12'0 0.0
2017-Sep-10 05:30N 34°09' W 119°12'0 0.0
2017-Sep-10 05:00N 34°09' W 119°12'0 0.0
2017-Sep-10 04:30N 34°09' W 119°12'0 0.0
2017-Sep-10 04:00N 34°09' W 119°12'0 0.0
2017-Sep-10 03:30N 34°09' W 119°12'0 0.0
2017-Sep-10 03:00N 34°09' W 119°12'0 0.0
2017-Sep-10 02:29N 34°09' W 119°12'0 0.0
2017-Sep-10 02:00N 34°09' W 119°12'0 0.0
2017-Sep-10 01:30N 34°09' W 119°12'0 0.0
2017-Sep-10 01:00N 34°09' W 119°12'0 0.0
2017-Sep-10 00:30N 34°09' W 119°12'0 0.0
2017-Sep-09 23:59N 34°09' W 119°12'0 0.0
2017-Sep-09 23:30N 34°09' W 119°12'0 0.0
2017-Sep-09 23:00N 34°09' W 119°12'0 0.0
2017-Sep-09 22:30N 34°09' W 119°12'612.9
2017-Sep-09 22:00N 34°10' W 119°20'5 9.2
2017-Sep-09 21:30N 34°11' W 119°25'0 0.4
2017-Sep-09 21:00N 34°11' W 119°25'0 0.0
2017-Sep-09 20:30N 34°11' W 119°25'0 0.0
2017-Sep-09 20:00N 34°11' W 119°25'1 2.2
2017-Sep-09 19:30N 34°12' W 119°26'  
Track history (hours):
 
Tides and Currents Weather Stations Pressure Air Temp Water Temp Dewpoint Dewpoint Depression Visibility Wind Speed Wind Dir Waves Ship Positions

Ryan T

Owner: SO CAL SHIP SERVICES, INC, TERMINAL ISLAND, CA. More information available from US FCC via Universal Licensing System and Coast Guard Vessel Documentation Center.

Last reported at 2017-Sep-19 19:18 UTC. Time now 2017-Sep-25 14:59 UTC.
Position N 33°44' W 118°16'.

MMSI: 367104050.

Date/timePositionNaut miles runAvg speedWind from/ knotsBaromVisibWave heightAir tempDewpointWater temp
2017-Sep-19 19:18N 33°44' W 118°16'0 0.0
2017-Sep-19 19:00N 33°44' W 118°16'0 0.2
2017-Sep-19 18:27N 33°44' W 118°16'0 0.3
2017-Sep-19 17:57N 33°44' W 118°16'2 4.6
2017-Sep-19 17:27N 33°42' W 118°15'1915.1
2017-Sep-19 16:10N 33°49' W 118°37'515.2
2017-Sep-19 15:52N 33°52' W 118°42'515.2
2017-Sep-19 15:30N 33°55' W 118°47'815.3
2017-Sep-19 15:00N 33°59' W 118°55'815.3
2017-Sep-19 14:30N 34°03' W 119°03'815.6
2017-Sep-19 14:00N 34°07' W 119°11'2 4.0
2017-Sep-19 13:28N 34°09' W 119°12'0 0.0
2017-Sep-19 12:58N 34°09' W 119°12'0 0.0
2017-Sep-19 12:28N 34°09' W 119°12'0 0.0
2017-Sep-19 12:00N 34°09' W 119°12'0 0.0
2017-Sep-19 11:31N 34°09' W 119°12'0 0.0
2017-Sep-19 11:01N 34°09' W 119°12'0 0.0
2017-Sep-19 10:30N 34°09' W 119°12'0 0.0
2017-Sep-19 09:58N 34°09' W 119°12'0 0.0
2017-Sep-19 09:30N 34°09' W 119°12'0 0.0
2017-Sep-19 08:58N 34°09' W 119°12'0 0.0
2017-Sep-19 08:29N 34°09' W 119°12'0 0.0
2017-Sep-19 08:01N 34°09' W 119°12'0 0.0
2017-Sep-19 07:29N 34°09' W 119°12'0 0.0
2017-Sep-19 07:00N 34°09' W 119°12'0 0.0
2017-Sep-19 06:30N 34°09' W 119°12'0 0.0
2017-Sep-19 05:56N 34°09' W 119°12'0 0.0
2017-Sep-19 05:30N 34°09' W 119°12'0 0.0
2017-Sep-19 05:00N 34°09' W 119°12'0 0.0
2017-Sep-19 04:29N 34°09' W 119°12'0 0.0
2017-Sep-19 03:58N 34°09' W 119°12'0 0.0
2017-Sep-19 03:30N 34°09' W 119°12'0 0.0
2017-Sep-19 02:59N 34°09' W 119°12'0 0.0
2017-Sep-19 02:29N 34°09' W 119°12'0 0.0
2017-Sep-19 01:57N 34°09' W 119°12'0 0.0
2017-Sep-19 01:29N 34°09' W 119°12'0 0.0
2017-Sep-19 00:59N 34°09' W 119°12'0 0.0
2017-Sep-19 00:31N 34°09' W 119°12'4 7.8
2017-Sep-18 23:59N 34°07' W 119°17'0 0.0
2017-Sep-18 23:30N 34°07' W 119°17'0 0.0
2017-Sep-18 22:59N 34°07' W 119°17'4 8.7
2017-Sep-18 22:30N 34°09' W 119°21'4 7.6
2017-Sep-18 21:59N 34°11' W 119°25'0 0.0
2017-Sep-18 21:30N 34°11' W 119°25'0 0.1
2017-Sep-18 21:00N 34°11' W 119°25'0 0.0
2017-Sep-18 20:28N 34°11' W 119°25'4 8.2
2017-Sep-18 20:00N 34°09' W 119°21'2 4.5
2017-Sep-18 19:30N 34°08' W 119°19'612.2
2017-Sep-18 19:00N 34°11' W 119°25'0 0.1
2017-Sep-18 18:30N 34°11' W 119°25'0 0.1
2017-Sep-18 18:00N 34°11' W 119°25'0 0.0
2017-Sep-18 17:30N 34°11' W 119°25'0 0.1
2017-Sep-18 15:09N 34°11' W 119°25'0 0.8
2017-Sep-18 15:00N 34°11' W 119°25'4 8.0
2017-Sep-18 14:30N 34°10' W 119°20'713.7
2017-Sep-18 14:00N 34°09' W 119°12'0 0.0
2017-Sep-18 13:29N 34°09' W 119°12'0 0.0
2017-Sep-18 13:00N 34°09' W 119°12'0 0.0
2017-Sep-18 12:28N 34°09' W 119°12'0 0.0
2017-Sep-18 11:57N 34°09' W 119°12'0 0.0
2017-Sep-18 11:24N 34°09' W 119°12'0 0.0
2017-Sep-18 11:00N 34°09' W 119°12'0 0.0
2017-Sep-18 10:30N 34°09' W 119°12'0 0.0
2017-Sep-18 09:59N 34°09' W 119°12'0 0.0
2017-Sep-18 09:29N 34°09' W 119°12'0 0.0
2017-Sep-18 08:59N 34°09' W 119°12'0 0.0
2017-Sep-18 08:30N 34°09' W 119°12'0 0.0
2017-Sep-18 08:00N 34°09' W 119°12'0 0.0
2017-Sep-18 07:26N 34°09' W 119°12'0 0.0
2017-Sep-18 06:59N 34°09' W 119°12'0 0.0
2017-Sep-18 06:29N 34°09' W 119°12'0 0.0
2017-Sep-18 05:58N 34°09' W 119°12'0 0.0
2017-Sep-18 05:26N 34°09' W 119°12'0 0.0
2017-Sep-18 05:00N 34°09' W 119°12'0 0.0
2017-Sep-18 04:28N 34°09' W 119°12'0 0.0
2017-Sep-18 03:58N 34°09' W 119°12'0 0.0
2017-Sep-18 03:30N 34°09' W 119°12'0 0.0
2017-Sep-18 02:59N 34°09' W 119°12'0 0.0
2017-Sep-18 02:30N 34°09' W 119°12'0 0.0
2017-Sep-18 02:00N 34°09' W 119°12'0 0.0
2017-Sep-18 01:30N 34°09' W 119°12'0 0.0
2017-Sep-18 00:59N 34°09' W 119°12'0 0.0
2017-Sep-18 00:29N 34°09' W 119°12'0 0.0
2017-Sep-18 00:00N 34°09' W 119°12'0 0.1
2017-Sep-17 23:29N 34°09' W 119°12'0 0.0
2017-Sep-17 22:58N 34°09' W 119°12'0 0.0
2017-Sep-17 22:30N 34°09' W 119°12'0 0.0
2017-Sep-17 21:59N 34°09' W 119°12'4 7.3
2017-Sep-17 21:25N 34°07' W 119°17'0 0.0
2017-Sep-17 20:59N 34°07' W 119°17'0 0.0
2017-Sep-17 20:27N 34°07' W 119°17'0 0.1
2017-Sep-17 20:00N 34°07' W 119°17'1 1.5
2017-Sep-17 19:30N 34°07' W 119°17'714.8
2017-Sep-17 19:00N 34°11' W 119°25'0 0.3
2017-Sep-17 18:27N 34°11' W 119°25'0 0.3
2017-Sep-17 18:00N 34°11' W 119°25'0 0.0
2017-Sep-17 17:29N 34°11' W 119°25'0 0.2
2017-Sep-17 17:00N 34°11' W 119°25'0 0.0
2017-Sep-17 16:30N 34°11' W 119°25'713.9
2017-Sep-17 15:59N 34°17' W 119°30'612.4
2017-Sep-17 15:29N 34°23' W 119°30'3 6.1
2017-Sep-17 14:59N 34°20' W 119°31'917.7
2017-Sep-17 14:27N 34°14' W 119°22'817.8
2017-Sep-17 14:00N 34°09' W 119°15'2 4.5
2017-Sep-17 13:30N 34°09' W 119°12'0 0.0
2017-Sep-17 13:00N 34°09' W 119°12'0 0.0
2017-Sep-17 12:28N 34°09' W 119°12'0 0.0
2017-Sep-17 12:00N 34°09' W 119°12'0 0.0
2017-Sep-17 11:30N 34°09' W 119°12'0 0.0
2017-Sep-17 11:00N 34°09' W 119°12'0 0.0
2017-Sep-17 10:29N 34°09' W 119°12'0 0.0
2017-Sep-17 10:00N 34°09' W 119°12'0 0.0
2017-Sep-17 09:30N 34°09' W 119°12'0 0.0
2017-Sep-17 09:00N 34°09' W 119°12'0 0.0
2017-Sep-17 08:30N 34°09' W 119°12'0 0.0
2017-Sep-17 08:00N 34°09' W 119°12'0 0.0
2017-Sep-17 07:30N 34°09' W 119°12'0 0.0
2017-Sep-17 07:01N 34°09' W 119°12'0 0.0
2017-Sep-17 06:28N 34°09' W 119°12'0 0.0
2017-Sep-17 05:59N 34°09' W 119°12'0 0.0
2017-Sep-17 05:30N 34°09' W 119°12'0 0.0
2017-Sep-17 04:59N 34°09' W 119°12'0 0.0
2017-Sep-17 04:30N 34°09' W 119°12'0 0.0
2017-Sep-17 03:57N 34°09' W 119°12'0 0.0
2017-Sep-17 03:25N 34°09' W 119°12'0 0.0
2017-Sep-17 03:00N 34°09' W 119°12'0 0.0
2017-Sep-17 02:30N 34°09' W 119°12'0 0.0
2017-Sep-17 01:57N 34°09' W 119°12'0 0.0
2017-Sep-17 01:30N 34°09' W 119°12'0 0.0
2017-Sep-17 00:59N 34°09' W 119°12'0 0.3
2017-Sep-17 00:30N 34°09' W 119°12'815.8
2017-Sep-17 00:00N 34°10' W 119°22'3 5.9
2017-Sep-16 23:30N 34°11' W 119°25'0 0.3
2017-Sep-16 23:00N 34°11' W 119°25'0 0.4
2017-Sep-16 22:30N 34°11' W 119°25'1 2.1
2017-Sep-16 22:00N 34°12' W 119°26'918.1
2017-Sep-16 21:30N 34°20' W 119°31'3 7.0
2017-Sep-16 21:00N 34°23' W 119°30'0 0.0
2017-Sep-16 20:30N 34°23' W 119°30'3 5.3
2017-Sep-16 20:00N 34°21' W 119°32'815.9
2017-Sep-16 19:30N 34°14' W 119°27'3 5.9
2017-Sep-16 18:58N 34°11' W 119°25'0 0.4
2017-Sep-16 18:31N 34°11' W 119°25'0 0.0
2017-Sep-16 18:00N 34°11' W 119°25'0 0.0
2017-Sep-16 17:30N 34°11' W 119°25'0 0.0
2017-Sep-16 17:00N 34°11' W 119°25'0 0.0
2017-Sep-16 16:30N 34°11' W 119°25'0 0.3
2017-Sep-16 16:00N 34°11' W 119°25'611.3
2017-Sep-16 15:27N 34°10' W 119°18'510.7
2017-Sep-16 15:00N 34°09' W 119°12'0 0.1
2017-Sep-16 14:30N 34°09' W 119°12'0 0.0
2017-Sep-16 14:00N 34°09' W 119°12'0 0.1
2017-Sep-16 13:24N 34°09' W 119°12'0 0.0
2017-Sep-16 12:58N 34°09' W 119°12'0 0.0
2017-Sep-16 12:29N 34°09' W 119°12'0 0.0
2017-Sep-16 11:59N 34°09' W 119°12'0 0.0
2017-Sep-16 11:27N 34°09' W 119°12'0 0.0
2017-Sep-16 10:57N 34°09' W 119°12'0 0.0
2017-Sep-16 10:25N 34°09' W 119°12'0 0.0
2017-Sep-16 09:59N 34°09' W 119°12'0 0.0
2017-Sep-16 09:28N 34°09' W 119°12'0 0.0
2017-Sep-16 09:00N 34°09' W 119°12'0 0.0
2017-Sep-16 08:27N 34°09' W 119°12'0 0.0
2017-Sep-16 07:59N 34°09' W 119°12'0 0.0
2017-Sep-16 07:30N 34°09' W 119°12'0 0.0
2017-Sep-16 07:00N 34°09' W 119°12'0 0.0
2017-Sep-16 06:26N 34°09' W 119°12'0 0.0
2017-Sep-16 05:59N 34°09' W 119°12'0 0.0
2017-Sep-16 05:29N 34°09' W 119°12'0 0.0
2017-Sep-16 04:59N 34°09' W 119°12'0 0.0
2017-Sep-16 04:30N 34°09' W 119°12'0 0.0
2017-Sep-16 03:52N 34°09' W 119°12'0 0.0
2017-Sep-16 03:29N 34°09' W 119°12'0 0.0
2017-Sep-16 03:00N 34°09' W 119°12'0 0.0
2017-Sep-16 02:29N 34°09' W 119°12'0 0.0
2017-Sep-16 01:46N 34°09' W 119°12'0 0.0
2017-Sep-16 01:25N 34°09' W 119°12'0 0.0
2017-Sep-16 00:51N 34°09' W 119°12'0 0.0
2017-Sep-16 00:29N 34°09' W 119°12'0 0.0
2017-Sep-15 23:53N 34°09' W 119°12'0 0.0
2017-Sep-15 23:29N 34°09' W 119°12'0 0.0
2017-Sep-15 22:53N 34°09' W 119°12'0 0.1
2017-Sep-15 22:30N 34°09' W 119°12'816.0
2017-Sep-15 22:00N 34°10' W 119°22'3 5.7
2017-Sep-15 21:31N 34°11' W 119°25'2 3.5
2017-Sep-15 20:58N 34°13' W 119°26'816.0
2017-Sep-15 20:30N 34°19' W 119°30'4 7.3
2017-Sep-15 19:59N 34°23' W 119°30'0 0.0
2017-Sep-15 19:30N 34°23' W 119°30'814.6
2017-Sep-15 18:59N 34°16' W 119°28'5 9.2
2017-Sep-15 18:24N 34°11' W 119°25'0 0.0
2017-Sep-15 17:58N 34°11' W 119°25'0 0.3
2017-Sep-15 17:30N 34°11' W 119°25'0 0.1
2017-Sep-15 16:58N 34°11' W 119°25'0 0.1
2017-Sep-15 16:30N 34°11' W 119°25'0 0.0
2017-Sep-15 15:59N 34°11' W 119°25'0 0.0
2017-Sep-15 15:29N 34°11' W 119°25'0 0.1
2017-Sep-15 14:53N 34°11' W 119°25'3 6.0
2017-Sep-15 14:25N 34°10' W 119°22'615.5
2017-Sep-15 14:00N 34°09' W 119°15'2 3.7
2017-Sep-15 13:28N 34°09' W 119°12'0 0.0
2017-Sep-15 13:00N 34°09' W 119°12'0 0.0
2017-Sep-15 12:28N 34°09' W 119°12'0 0.0
2017-Sep-15 12:01N 34°09' W 119°12'0 0.0
2017-Sep-15 11:31N 34°09' W 119°12'0 0.0
2017-Sep-15 11:00N 34°09' W 119°12'0 0.0
2017-Sep-15 10:26N 34°09' W 119°12'0 0.0
2017-Sep-15 10:00N 34°09' W 119°12'0 0.0
2017-Sep-15 09:24N 34°09' W 119°12'0 0.0
2017-Sep-15 09:00N 34°09' W 119°12'0 0.0
2017-Sep-15 08:30N 34°09' W 119°12'0 0.0
2017-Sep-15 08:00N 34°09' W 119°12'0 0.0
2017-Sep-15 07:27N 34°09' W 119°12'0 0.0
2017-Sep-15 07:00N 34°09' W 119°12'0 0.0
2017-Sep-15 06:27N 34°09' W 119°12'0 0.0
2017-Sep-15 06:00N 34°09' W 119°12'0 0.0
2017-Sep-15 05:28N 34°09' W 119°12'0 0.0
2017-Sep-15 05:00N 34°09' W 119°12'0 0.0
2017-Sep-15 04:28N 34°09' W 119°12'0 0.0
2017-Sep-15 04:00N 34°09' W 119°12'0 0.0
2017-Sep-15 03:30N 34°09' W 119°12'0 0.0
2017-Sep-15 02:47N 34°09' W 119°12'0 0.0
2017-Sep-15 02:29N 34°09' W 119°12'0 0.0
2017-Sep-15 02:00N 34°09' W 119°12'0 0.0
2017-Sep-15 01:30N 34°09' W 119°12'0 0.0
2017-Sep-15 01:00N 34°09' W 119°12'0 0.0
2017-Sep-15 00:30N 34°09' W 119°12'2 4.2
2017-Sep-14 23:58N 34°09' W 119°15'715.5
2017-Sep-14 23:30N 34°10' W 119°23'2 3.2
2017-Sep-14 23:01N 34°11' W 119°25'0 0.0
2017-Sep-14 22:28N 34°11' W 119°25'0 0.0
2017-Sep-14 21:55N 34°11' W 119°25'0 0.0
2017-Sep-14 21:30N 34°11' W 119°25'0 0.0
2017-Sep-14 20:59N 34°11' W 119°25'0 0.0
2017-Sep-14 20:28N 34°11' W 119°25'0 0.0
2017-Sep-14 20:00N 34°11' W 119°25'1 1.7
2017-Sep-14 19:30N 34°12' W 119°26'816.4
2017-Sep-14 19:00N 34°19' W 119°30'4 8.6
2017-Sep-14 18:30N 34°23' W 119°30'0 0.0
2017-Sep-14 17:57N 34°23' W 119°30'0 0.0
2017-Sep-14 17:29N 34°23' W 119°30'613.1
2017-Sep-14 17:00N 34°17' W 119°29'713.9
2017-Sep-14 16:30N 34°11' W 119°25'0 0.1
2017-Sep-14 16:00N 34°11' W 119°25'0 0.0
2017-Sep-14 15:30N 34°11' W 119°25'0 0.1
2017-Sep-14 14:58N 34°11' W 119°25'0 0.5
2017-Sep-14 14:30N 34°11' W 119°25'814.8
2017-Sep-14 13:59N 34°09' W 119°16'3 6.2
2017-Sep-14 13:29N 34°09' W 119°12'0 0.0
2017-Sep-14 13:00N 34°09' W 119°12'0 0.0
2017-Sep-14 12:31N 34°09' W 119°12'0 0.0
2017-Sep-14 11:59N 34°09' W 119°12'0 0.0
2017-Sep-14 11:25N 34°09' W 119°12'0 0.0
2017-Sep-14 10:50N 34°09' W 119°12'0 0.0
2017-Sep-14 10:29N 34°09' W 119°12'0 0.0
2017-Sep-14 09:59N 34°09' W 119°12'0 0.0
2017-Sep-14 09:30N 34°09' W 119°12'0 0.0
2017-Sep-14 08:57N 34°09' W 119°12'0 0.0
2017-Sep-14 08:30N 34°09' W 119°12'0 0.0
2017-Sep-14 07:58N 34°09' W 119°12'0 0.0
2017-Sep-14 07:28N 34°09' W 119°12'0 0.0
2017-Sep-14 07:00N 34°09' W 119°12'0 0.0
2017-Sep-14 06:28N 34°09' W 119°12'0 0.0
2017-Sep-14 06:00N 34°09' W 119°12'0 0.0
2017-Sep-14 05:29N 34°09' W 119°12'0 0.0
2017-Sep-14 04:48N 34°09' W 119°12'0 0.0
2017-Sep-14 04:25N 34°09' W 119°12'0 0.0
2017-Sep-14 03:57N 34°09' W 119°12'0 0.0
2017-Sep-14 03:25N 34°09' W 119°12'0 0.0
2017-Sep-14 03:00N 34°09' W 119°12'0 0.0
2017-Sep-14 02:28N 34°09' W 119°12'0 0.0
2017-Sep-14 01:59N 34°09' W 119°12'0 0.0
2017-Sep-14 01:30N 34°09' W 119°12'0 0.0
2017-Sep-14 00:59N 34°09' W 119°12'0 0.0
2017-Sep-14 00:30N 34°09' W 119°12'0 0.0
2017-Sep-14 00:00N 34°09' W 119°12'4 8.4
2017-Sep-13 23:30N 34°09' W 119°17'610.5
2017-Sep-13 22:56N 34°11' W 119°24'817.8
2017-Sep-13 22:30N 34°09' W 119°15'2 4.5
2017-Sep-13 21:57N 34°09' W 119°12'1 1.4
2017-Sep-13 21:31N 34°09' W 119°13'510.6
2017-Sep-13 21:00N 34°08' W 119°19'611.2
2017-Sep-13 20:30N 34°11' W 119°25'0 0.0
2017-Sep-13 20:00N 34°11' W 119°25'0 0.0
2017-Sep-13 19:30N 34°11' W 119°25'2 2.9
2017-Sep-13 18:54N 34°13' W 119°26'513.4
2017-Sep-13 18:30N 34°17' W 119°29'611.2
2017-Sep-13 18:00N 34°23' W 119°31'1 1.2
2017-Sep-13 17:28N 34°23' W 119°30'0 0.0
2017-Sep-13 16:59N 34°23' W 119°30'0 0.0
2017-Sep-13 16:28N 34°23' W 119°30'612.1
2017-Sep-13 15:59N 34°17' W 119°29'714.4
2017-Sep-13 15:29N 34°11' W 119°25'0 0.0
2017-Sep-13 14:58N 34°11' W 119°25'2 5.0
2017-Sep-13 14:30N 34°10' W 119°22'715.4
2017-Sep-13 14:00N 34°09' W 119°14'1 2.3
2017-Sep-13 13:28N 34°09' W 119°12'0 0.0
2017-Sep-13 13:00N 34°09' W 119°12'0 0.0
2017-Sep-13 12:27N 34°09' W 119°12'0 0.0
2017-Sep-13 11:59N 34°09' W 119°12'0 0.0
2017-Sep-13 11:29N 34°09' W 119°12'0 0.0
2017-Sep-13 10:58N 34°09' W 119°12'0 0.0
2017-Sep-13 10:30N 34°09' W 119°12'0 0.0
2017-Sep-13 09:59N 34°09' W 119°12'0 0.0
2017-Sep-13 09:30N 34°09' W 119°12'0 0.0
2017-Sep-13 09:00N 34°09' W 119°12'0 0.0
2017-Sep-13 08:30N 34°09' W 119°12'0 0.0
2017-Sep-13 08:00N 34°09' W 119°12'0 0.0
2017-Sep-13 07:30N 34°09' W 119°12'0 0.0
2017-Sep-13 07:00N 34°09' W 119°12'0 0.0
2017-Sep-13 06:29N 34°09' W 119°12'0 0.0
2017-Sep-13 06:00N 34°09' W 119°12'0 0.0
2017-Sep-13 05:29N 34°09' W 119°12'0 0.0
2017-Sep-13 04:55N 34°09' W 119°12'0 0.0
2017-Sep-13 04:30N 34°09' W 119°12'0 0.0
2017-Sep-13 04:00N 34°09' W 119°12'0 0.0
2017-Sep-13 03:29N 34°09' W 119°12'0 0.0
2017-Sep-13 02:58N 34°09' W 119°12'0 0.0
2017-Sep-13 02:29N 34°09' W 119°12'0 0.0
2017-Sep-13 01:59N 34°09' W 119°12'0 0.0
2017-Sep-13 01:30N 34°09' W 119°12'0 0.0
2017-Sep-13 00:59N 34°09' W 119°12'0 0.0
2017-Sep-13 00:27N 34°09' W 119°12'0 0.0
2017-Sep-12 23:58N 34°09' W 119°12'0 0.0
2017-Sep-12 23:27N 34°09' W 119°12'0 0.0
2017-Sep-12 23:00N 34°09' W 119°12'5 4.8
2017-Sep-12 21:56N 34°04' W 119°15'3 6.6
2017-Sep-12 21:28N 34°07' W 119°17'715.7
2017-Sep-12 21:00N 34°11' W 119°24'1 1.2
2017-Sep-12 20:31N 34°11' W 119°25'914.9
2017-Sep-12 19:55N 34°19' W 119°30'4 8.6
2017-Sep-12 19:26N 34°23' W 119°31'714.4
2017-Sep-12 18:59N 34°16' W 119°29'1 1.3
2017-Sep-12 18:27N 34°17' W 119°29'613.0
2017-Sep-12 18:00N 34°23' W 119°31'0 0.4
2017-Sep-12 17:29N 34°23' W 119°31'713.6
2017-Sep-12 17:00N 34°16' W 119°29'613.0
2017-Sep-12 16:31N 34°11' W 119°25'0 0.1
2017-Sep-12 16:00N 34°11' W 119°25'3 5.9
2017-Sep-12 15:25N 34°09' W 119°21'511.0
2017-Sep-12 15:00N 34°07' W 119°17'0 0.1
2017-Sep-12 14:30N 34°07' W 119°17'4 8.3
2017-Sep-12 14:00N 34°09' W 119°12'0 0.0
2017-Sep-12 13:28N 34°09' W 119°12'0 0.0
2017-Sep-12 13:00N 34°09' W 119°12'0 0.0
2017-Sep-12 12:23N 34°09' W 119°12'0 0.0
2017-Sep-12 11:59N 34°09' W 119°12'0 0.0
2017-Sep-12 11:30N 34°09' W 119°12'0 0.0
2017-Sep-12 10:57N 34°09' W 119°12'0 0.0
2017-Sep-12 10:30N 34°09' W 119°12'0 0.0
2017-Sep-12 10:00N 34°09' W 119°12'0 0.0
2017-Sep-12 09:30N 34°09' W 119°12'0 0.0
2017-Sep-12 08:59N 34°09' W 119°12'0 0.0
2017-Sep-12 08:30N 34°09' W 119°12'0 0.0
2017-Sep-12 08:00N 34°09' W 119°12'0 0.0
2017-Sep-12 07:29N 34°09' W 119°12'0 0.0
2017-Sep-12 06:56N 34°09' W 119°12'0 0.0
2017-Sep-12 06:29N 34°09' W 119°12'0 0.0
2017-Sep-12 06:00N 34°09' W 119°12'0 0.0
2017-Sep-12 05:29N 34°09' W 119°12'0 0.0
2017-Sep-12 05:00N 34°09' W 119°12'0 0.0
2017-Sep-12 04:30N 34°09' W 119°12'0 0.0
2017-Sep-12 03:59N 34°09' W 119°12'0 0.0
2017-Sep-12 03:26N 34°09' W 119°12'0 0.0
2017-Sep-12 03:00N 34°09' W 119°12'0 0.0
2017-Sep-12 02:30N 34°09' W 119°12'0 0.0
2017-Sep-12 02:01N 34°09' W 119°12'0 0.0
2017-Sep-12 01:29N 34°09' W 119°12'0 0.0
2017-Sep-12 00:51N 34°09' W 119°12'0 0.0
2017-Sep-12 00:30N 34°09' W 119°12'4 7.6
2017-Sep-12 00:00N 34°09' W 119°17'714.8
2017-Sep-11 23:30N 34°11' W 119°25'0 0.0
2017-Sep-11 23:00N 34°11' W 119°25'0 0.1
2017-Sep-11 22:30N 34°11' W 119°25'0 0.0
2017-Sep-11 21:59N 34°11' W 119°25'0 0.0
2017-Sep-11 21:29N 34°11' W 119°25'0 0.4
2017-Sep-11 21:00N 34°11' W 119°25'4 7.7
2017-Sep-11 20:30N 34°14' W 119°27'714.7
2017-Sep-11 20:00N 34°21' W 119°32'2 4.8
2017-Sep-11 19:29N 34°23' W 119°30'0 0.8
2017-Sep-11 18:58N 34°23' W 119°30'0 0.0
2017-Sep-11 18:26N 34°23' W 119°30'0 0.0
2017-Sep-11 17:58N 34°23' W 119°30'0 0.1
2017-Sep-11 17:26N 34°23' W 119°30'0 0.0
2017-Sep-11 16:54N 34°23' W 119°30'1 1.7
2017-Sep-11 16:30N 34°23' W 119°30'0 0.8
2017-Sep-11 16:00N 34°23' W 119°31'713.6
2017-Sep-11 15:30N 34°16' W 119°28'611.7
2017-Sep-11 15:00N 34°11' W 119°25'0 0.1
2017-Sep-11 14:30N 34°11' W 119°25'712.8
2017-Sep-11 13:57N 34°09' W 119°17'4 7.8
2017-Sep-11 13:28N 34°09' W 119°12'0 0.0
2017-Sep-11 13:00N 34°09' W 119°12'0 0.0
2017-Sep-11 12:24N 34°09' W 119°12'0 0.0
2017-Sep-11 11:59N 34°09' W 119°12'0 0.0
2017-Sep-11 11:30N 34°09' W 119°12'0 0.0
2017-Sep-11 10:58N 34°09' W 119°12'0 0.0
2017-Sep-11 10:29N 34°09' W 119°12'0 0.0
2017-Sep-11 09:59N 34°09' W 119°12'0 0.0
2017-Sep-11 09:29N 34°09' W 119°12'0 0.0
2017-Sep-11 09:00N 34°09' W 119°12'0 0.0
2017-Sep-11 08:28N 34°09' W 119°12'0 0.0
2017-Sep-11 08:00N 34°09' W 119°12'0 0.0
2017-Sep-11 07:27N 34°09' W 119°12'0 0.0
2017-Sep-11 07:00N 34°09' W 119°12'0 0.0
2017-Sep-11 06:18N 34°09' W 119°12'0 0.0
2017-Sep-11 06:00N 34°09' W 119°12'0 0.0
2017-Sep-11 05:30N 34°09' W 119°12'0 0.0
2017-Sep-11 05:00N 34°09' W 119°12'0 0.0
2017-Sep-11 04:25N 34°09' W 119°12'0 0.0
2017-Sep-11 04:00N 34°09' W 119°12'0 0.0
2017-Sep-11 03:30N 34°09' W 119°12'0 0.0
2017-Sep-11 03:00N 34°09' W 119°12'0 0.0
2017-Sep-11 02:30N 34°09' W 119°12'0 0.0
2017-Sep-11 01:59N 34°09' W 119°12'0 0.0
2017-Sep-11 01:30N 34°09' W 119°12'0 0.0
2017-Sep-11 01:00N 34°09' W 119°12'0 0.0
2017-Sep-11 00:30N 34°09' W 119°12'0 0.0
2017-Sep-10 23:59N 34°09' W 119°12'4 8.9
2017-Sep-10 23:30N 34°09' W 119°17'713.4
2017-Sep-10 23:00N 34°11' W 119°25'0 0.3
2017-Sep-10 22:30N 34°11' W 119°25'0 0.0
2017-Sep-10 22:00N 34°11' W 119°25'0 0.0
2017-Sep-10 21:30N 34°11' W 119°25'0 0.0
2017-Sep-10 20:58N 34°11' W 119°25'0 0.0
2017-Sep-10 20:30N 34°11' W 119°25'0 0.0
2017-Sep-10 20:00N 34°11' W 119°25'0 0.0
2017-Sep-10 19:30N 34°11' W 119°25'0 0.0
2017-Sep-10 19:00N 34°11' W 119°25'0 0.0
2017-Sep-10 18:30N 34°11' W 119°25'0 0.0
2017-Sep-10 18:00N 34°11' W 119°25'0 0.0
2017-Sep-10 17:30N 34°11' W 119°25'0 0.0
2017-Sep-10 17:01N 34°11' W 119°25'0 0.0
2017-Sep-10 16:30N 34°11' W 119°25'0 0.0
2017-Sep-10 16:00N 34°11' W 119°25'0 0.0
2017-Sep-10 15:29N 34°11' W 119°25'0 0.0
2017-Sep-10 15:00N 34°11' W 119°25'9 9.0
2017-Sep-10 14:00N 34°09' W 119°15'2 4.1
2017-Sep-10 13:30N 34°09' W 119°12'0 0.0
2017-Sep-10 13:00N 34°09' W 119°12'0 0.0
2017-Sep-10 12:30N 34°09' W 119°12'0 0.0
2017-Sep-10 12:00N 34°09' W 119°12'0 0.0
2017-Sep-10 11:29N 34°09' W 119°12'0 0.0
2017-Sep-10 11:00N 34°09' W 119°12'0 0.0
2017-Sep-10 10:30N 34°09' W 119°12'0 0.0
2017-Sep-10 09:58N 34°09' W 119°12'0 0.0
2017-Sep-10 09:30N 34°09' W 119°12'0 0.0
2017-Sep-10 09:00N 34°09' W 119°12'0 0.0
2017-Sep-10 08:30N 34°09' W 119°12'0 0.0
2017-Sep-10 08:00N 34°09' W 119°12'0 0.0
2017-Sep-10 07:30N 34°09' W 119°12'0 0.0
2017-Sep-10 07:00N 34°09' W 119°12'0 0.0
2017-Sep-10 06:30N 34°09' W 119°12'0 0.0
2017-Sep-10 06:00N 34°09' W 119°12'0 0.0
2017-Sep-10 05:30N 34°09' W 119°12'0 0.0
2017-Sep-10 05:00N 34°09' W 119°12'0 0.0
2017-Sep-10 04:30N 34°09' W 119°12'0 0.0
2017-Sep-10 04:00N 34°09' W 119°12'0 0.0
2017-Sep-10 03:30N 34°09' W 119°12'0 0.0
2017-Sep-10 03:00N 34°09' W 119°12'0 0.0
2017-Sep-10 02:29N 34°09' W 119°12'0 0.0
2017-Sep-10 02:00N 34°09' W 119°12'0 0.0
2017-Sep-10 01:30N 34°09' W 119°12'0 0.0
2017-Sep-10 01:00N 34°09' W 119°12'0 0.0
2017-Sep-10 00:30N 34°09' W 119°12'0 0.0
2017-Sep-09 23:59N 34°09' W 119°12'0 0.0
2017-Sep-09 23:30N 34°09' W 119°12'0 0.0
2017-Sep-09 23:00N 34°09' W 119°12'0 0.0
2017-Sep-09 22:30N 34°09' W 119°12'612.9
2017-Sep-09 22:00N 34°10' W 119°20'5 9.2
2017-Sep-09 21:30N 34°11' W 119°25'0 0.4
2017-Sep-09 21:00N 34°11' W 119°25'0 0.0
2017-Sep-09 20:30N 34°11' W 119°25'0 0.0
2017-Sep-09 20:00N 34°11' W 119°25'1 2.2
2017-Sep-09 19:30N 34°12' W 119°26'  

Dump ship's entire track history